Terminal Aerodrome Forecast
Issued by NWS

Home | Current Version | Previous Version | Graphics & Text | Print | Product List | Glossary On
Versions: 1 2 3 4 5 6 7 8 9 10 11 12 13 14 15 16 17
037
FTUS43 KIWX 262202 AAA
TAFSBN
TAF AMD
KSBN 262202Z 2622/2718 03010KT P6SM OVC012
     FM270400 06010KT P6SM OVC015
     FM271200 09014G20KT P6SM BKN025
     FM271700 10013KT P6SM BKN250=

USA.gov is the U.S. government's official web portal to all federal, state and local government web resources and services.